createdAt,value
2019-02-25T00:02:11.391Z,4.73
2019-02-25T00:04:41.846Z,4.80
2019-02-25T00:07:12.378Z,4.63
2019-02-25T00:09:42.587Z,4.23
2019-02-25T00:12:13.155Z,4.37
2019-02-25T00:14:43.343Z,4.60
2019-02-25T00:17:13.563Z,4.70
2019-02-25T00:19:43.750Z,4.63
2019-02-25T00:22:14.141Z,4.40
2019-02-25T00:24:43.701Z,3.90
2019-02-25T00:27:14.180Z,4.20
2019-02-25T00:29:44.391Z,3.60
2019-02-25T00:32:14.598Z,4.30
2019-02-25T00:34:45.094Z,4.00
2019-02-25T00:37:15.320Z,4.23
2019-02-25T00:39:45.498Z,4.03
2019-02-25T00:42:15.734Z,3.90
2019-02-25T00:44:45.927Z,4.37
2019-02-25T00:47:16.147Z,4.27
2019-02-25T00:49:46.375Z,4.20
2019-02-25T00:52:16.575Z,4.10
2019-02-25T00:54:46.805Z,4.00
2019-02-25T00:57:17.015Z,4.17
2019-02-25T00:59:47.518Z,3.77
2019-02-25T01:02:17.706Z,3.93
2019-02-25T01:04:48.186Z,4.37
2019-02-25T01:07:18.369Z,3.90
2019-02-25T01:09:48.595Z,4.33
2019-02-25T01:12:18.795Z,4.30
2019-02-25T01:14:49.010Z,4.67
2019-02-25T01:17:19.198Z,4.37
2019-02-25T01:19:49.549Z,4.80
2019-02-25T01:22:19.745Z,4.77
2019-02-25T01:24:49.964Z,4.30
2019-02-25T01:27:20.402Z,3.87
2019-02-25T01:29:50.945Z,4.03
2019-02-25T01:32:21.139Z,3.73
2019-02-25T01:34:51.349Z,3.90
2019-02-25T01:37:21.570Z,3.87
2019-02-25T01:39:52.059Z,4.30
2019-02-25T01:42:22.265Z,3.73
2019-02-25T01:44:52.496Z,3.83
2019-02-25T01:47:22.688Z,3.90
2019-02-25T01:49:52.900Z,3.83
2019-02-25T01:52:23.102Z,3.83
2019-02-25T01:54:53.599Z,4.30
2019-02-25T01:57:23.814Z,3.97
2019-02-25T01:59:54.354Z,4.37
2019-02-25T02:02:24.541Z,4.30
2019-02-25T02:04:55.010Z,5.03
2019-02-25T02:07:25.223Z,4.83
2019-02-25T02:09:55.445Z,4.77
2019-02-25T02:12:25.667Z,4.70
2019-02-25T02:14:55.869Z,5.20
2019-02-25T02:17:26.346Z,4.20
2019-02-25T02:19:56.547Z,3.90
2019-02-25T02:22:26.777Z,3.80
2019-02-25T02:24:57.223Z,4.03
2019-02-25T02:27:27.457Z,4.30
2019-02-25T02:29:57.633Z,4.40
2019-02-25T02:32:28.235Z,4.33
2019-02-25T02:34:58.602Z,4.40
2019-02-25T02:37:28.819Z,4.27
2019-02-25T02:39:59.051Z,4.77
2019-02-25T02:42:29.274Z,4.50
2019-02-25T02:44:59.475Z,4.77
2019-02-25T02:47:38.585Z,4.03
2019-02-25T02:50:11.857Z,4.27
2019-02-25T02:52:42.082Z,3.50
2019-02-25T02:55:12.270Z,4.00
2019-02-25T02:57:42.519Z,4.10
2019-02-25T03:00:15.343Z,3.97
2019-02-25T03:02:45.711Z,3.63
2019-02-25T03:05:17.160Z,4.07
2019-02-25T03:07:47.728Z,3.77
2019-02-25T03:10:19.078Z,4.43
2019-02-25T03:12:49.267Z,4.20
2019-02-25T03:15:21.246Z,4.07
2019-02-25T03:17:51.472Z,4.03
2019-02-25T03:20:21.665Z,4.33
2019-02-25T03:22:52.151Z,4.17
2019-02-25T03:25:22.371Z,4.10
2019-02-25T03:27:52.577Z,3.77
2019-02-25T03:30:23.235Z,4.10
2019-02-25T03:32:53.789Z,4.40
2019-02-25T03:35:24.314Z,4.03
2019-02-25T03:37:54.829Z,4.33
2019-02-25T03:40:25.365Z,4.70
2019-02-25T03:42:55.898Z,4.20
2019-02-25T03:45:26.131Z,4.20
2019-02-25T03:47:56.313Z,3.83
2019-02-25T03:50:26.541Z,4.50
2019-02-25T03:52:56.730Z,4.70
2019-02-25T03:55:27.219Z,4.57
2019-02-25T03:57:57.397Z,4.63
2019-02-25T04:00:27.618Z,5.20
2019-02-25T04:02:58.141Z,4.63
2019-02-25T04:05:28.368Z,4.17
2019-02-25T04:07:58.619Z,4.73
2019-02-25T04:10:28.834Z,4.90
2019-02-25T04:12:59.517Z,4.97
2019-02-25T04:15:31.691Z,4.70
2019-02-25T04:18:02.219Z,5.70
2019-02-25T04:20:32.717Z,4.50
2019-02-25T04:23:02.914Z,5.67
2019-02-25T04:25:33.138Z,6.30
2019-02-25T04:28:03.647Z,6.40
2019-02-25T04:30:34.166Z,6.10
2019-02-25T04:33:04.700Z,5.63
2019-02-25T04:35:34.923Z,6.40
2019-02-25T04:38:05.129Z,5.53
2019-02-25T04:40:35.358Z,6.33
2019-02-25T04:43:05.928Z,6.03
2019-02-25T04:45:36.120Z,6.83
2019-02-25T04:48:06.395Z,6.10
2019-02-25T04:50:36.586Z,5.57
2019-02-25T04:53:06.808Z,6.00
2019-02-25T04:55:37.002Z,6.20
2019-02-25T04:58:07.564Z,6.70
2019-02-25T05:00:37.762Z,6.87
2019-02-25T05:03:07.998Z,6.43
2019-02-25T05:05:38.184Z,5.60
2019-02-25T05:08:08.397Z,5.33
2019-02-25T05:10:38.903Z,5.33
2019-02-25T05:13:09.430Z,5.13
2019-02-25T05:15:39.626Z,4.50
2019-02-25T05:18:10.204Z,5.30
2019-02-25T05:20:40.717Z,5.60
2019-02-25T05:23:10.949Z,4.77
2019-02-25T05:25:41.127Z,4.97
2019-02-25T05:28:11.342Z,5.00
2019-02-25T05:30:41.530Z,4.57
2019-02-25T05:33:11.767Z,4.60
2019-02-25T05:35:42.274Z,5.07
2019-02-25T05:38:12.481Z,5.17
2019-02-25T05:40:42.927Z,4.70
2019-02-25T05:43:13.159Z,5.70
2019-02-25T05:45:43.349Z,5.10
2019-02-25T05:48:13.558Z,5.57
2019-02-25T05:50:43.785Z,5.00
2019-02-25T05:53:14.008Z,5.60
2019-02-25T05:55:44.249Z,5.33
2019-02-25T05:58:14.710Z,5.00
2019-02-25T06:00:45.243Z,5.80
2019-02-25T06:03:15.425Z,5.00
2019-02-25T06:05:45.655Z,5.23
2019-02-25T06:08:15.848Z,5.33
2019-02-25T06:10:46.062Z,5.83
2019-02-25T06:13:16.259Z,4.93
2019-02-25T06:15:46.491Z,6.10
2019-02-25T06:18:17.020Z,6.10
2019-02-25T06:20:47.557Z,6.57
2019-02-25T06:23:17.751Z,6.40
2019-02-25T06:25:47.982Z,6.77
2019-02-25T06:28:18.187Z,6.63
2019-02-25T06:30:48.658Z,6.40
2019-02-25T06:33:18.859Z,6.93
2019-02-25T06:35:49.074Z,6.30
2019-02-25T06:38:19.303Z,6.43
2019-02-25T06:40:49.523Z,6.27
2019-02-25T06:43:19.713Z,6.70
2019-02-25T06:45:50.210Z,6.17
2019-02-25T06:48:20.402Z,6.90
2019-02-25T06:50:50.871Z,6.90
2019-02-25T06:53:21.070Z,5.93
2019-02-25T06:55:51.631Z,6.30
2019-02-25T06:58:23.123Z,5.90
2019-02-25T07:00:53.615Z,6.33
2019-02-25T07:03:23.802Z,6.40
2019-02-25T07:06:12.175Z,6.00
2019-02-25T07:09:02.358Z,6.13
2019-02-25T07:11:40.485Z,5.80
2019-02-25T07:14:12.309Z,6.33
2019-02-25T07:16:44.493Z,6.87
2019-02-25T07:19:16.663Z,6.70
2019-02-25T07:21:51.505Z,6.80
2019-02-25T07:24:39.650Z,6.07
2019-02-25T07:27:26.589Z,6.77
2019-02-25T07:30:01.155Z,6.40
2019-02-25T07:32:38.709Z,6.83
2019-02-25T07:35:10.557Z,6.77
2019-02-25T07:37:42.675Z,6.37
2019-02-25T07:40:20.475Z,7.13
2019-02-25T07:43:08.507Z,6.50
2019-02-25T07:45:40.351Z,6.63
2019-02-25T07:48:12.376Z,7.30
2019-02-25T07:50:59.559Z,7.30
2019-02-25T07:53:31.417Z,7.30
2019-02-25T07:56:03.259Z,8.17
2019-02-25T07:58:35.454Z,7.90
2019-02-25T08:01:07.281Z,7.57
2019-02-25T08:03:42.144Z,6.97
2019-02-25T08:06:17.087Z,7.53
2019-02-25T08:08:48.935Z,7.10
2019-02-25T08:11:26.679Z,8.00
2019-02-25T08:14:14.895Z,7.23
2019-02-25T08:17:05.078Z,7.20
2019-02-25T08:19:53.426Z,7.70
2019-02-25T08:22:41.298Z,8.20
2019-02-25T08:25:13.584Z,7.20
2019-02-25T08:27:45.413Z,8.00
2019-02-25T08:30:17.270Z,7.77
2019-02-25T08:32:51.785Z,7.30
2019-02-25T08:35:58.898Z,7.43
2019-02-25T08:38:33.851Z,7.10
2019-02-25T08:41:25.198Z,6.70
2019-02-25T08:44:15.621Z,6.57
2019-02-25T08:46:53.632Z,6.47
2019-02-25T08:49:28.170Z,6.43
2019-02-25T08:51:58.398Z,6.93
2019-02-25T08:54:28.657Z,6.73
2019-02-25T08:56:58.879Z,6.80
2019-02-25T08:59:29.063Z,6.50
2019-02-25T09:01:59.274Z,6.30
2019-02-25T09:04:29.505Z,6.17
2019-02-25T09:07:00.031Z,6.80
2019-02-25T09:09:30.571Z,7.30
2019-02-25T09:12:00.785Z,6.80
2019-02-25T09:14:30.980Z,7.00
2019-02-25T09:17:01.201Z,6.27
2019-02-25T09:19:31.479Z,6.60
2019-02-25T09:22:01.714Z,6.30
2019-02-25T09:24:32.230Z,6.87
2019-02-25T09:27:02.459Z,6.30
2019-02-25T09:29:32.978Z,5.77
2019-02-25T09:32:03.202Z,5.80
2019-02-25T09:34:33.734Z,6.70
2019-02-25T09:37:04.279Z,5.93
2019-02-25T09:39:35.219Z,5.90
2019-02-25T09:42:05.622Z,6.50
2019-02-25T09:44:37.854Z,6.17
2019-02-25T09:47:07.737Z,5.33
2019-02-25T09:49:37.935Z,5.47
2019-02-25T09:52:09.106Z,5.90
2019-02-25T09:54:39.862Z,5.05
2019-02-25T09:57:10.984Z,5.30
2019-02-25T09:59:41.755Z,5.05
2019-02-25T10:02:12.548Z,5.60
2019-02-25T10:04:43.611Z,6.12
2019-02-25T10:07:14.413Z,5.62
2019-02-25T10:09:45.178Z,5.22
2019-02-25T10:12:16.219Z,5.40
2019-02-25T10:14:49.437Z,5.92
2019-02-25T10:17:23.635Z,5.80
2019-02-25T10:19:52.227Z,5.35
2019-02-25T10:22:23.379Z,5.65
2019-02-25T10:24:54.407Z,5.55
2019-02-25T10:27:25.209Z,5.42
2019-02-25T10:29:55.974Z,5.10
2019-02-25T10:32:28.060Z,5.30
2019-02-25T10:34:59.831Z,5.37
2019-02-25T10:37:30.961Z,4.90
2019-02-25T10:40:01.759Z,4.50
2019-02-25T10:42:33.541Z,4.37
2019-02-25T10:45:13.938Z,6.00
2019-02-25T10:47:46.691Z,4.22
2019-02-25T10:50:17.270Z,4.95
2019-02-25T10:52:49.486Z,4.95
2019-02-25T10:55:23.504Z,4.37
2019-02-25T10:57:56.582Z,4.00
2019-02-25T11:00:27.135Z,3.92
2019-02-25T11:02:58.310Z,3.80
2019-02-25T11:05:30.633Z,3.52
2019-02-25T11:08:04.905Z,4.03
2019-02-25T11:10:54.936Z,4.03
2019-02-25T11:13:27.549Z,4.40
2019-02-25T11:16:00.254Z,4.25
2019-02-25T11:18:31.164Z,3.98
2019-02-25T11:21:03.614Z,4.28
2019-02-25T11:23:34.770Z,4.30
2019-02-25T11:26:05.569Z,3.90
2019-02-25T11:28:38.559Z,4.45
2019-02-25T11:31:10.570Z,4.50
2019-02-25T11:33:41.347Z,4.70
2019-02-25T11:36:13.222Z,3.50
2019-02-25T11:38:44.944Z,3.90
2019-02-25T11:41:15.731Z,3.70
2019-02-25T11:43:48.702Z,3.95
2019-02-25T11:46:19.287Z,3.90
2019-02-25T11:48:50.053Z,3.70
2019-02-25T11:51:21.173Z,4.40
2019-02-25T11:53:52.197Z,3.70
2019-02-25T11:56:23.255Z,4.05
2019-02-25T11:58:54.029Z,4.03
2019-02-25T12:01:25.139Z,3.50
2019-02-25T12:03:55.908Z,3.62
2019-02-25T12:06:27.023Z,4.22
2019-02-25T12:08:58.067Z,3.47
2019-02-25T12:11:28.854Z,2.95
2019-02-25T12:13:59.621Z,3.62
2019-02-25T12:16:30.685Z,3.98
2019-02-25T12:19:01.646Z,3.20
2019-02-25T12:21:32.670Z,3.10
2019-02-25T12:24:03.478Z,3.08
2019-02-25T12:26:34.558Z,3.10
2019-02-25T12:29:10.857Z,2.70
2019-02-25T12:31:38.194Z,2.87
2019-02-25T12:34:09.011Z,3.00
2019-02-25T12:36:40.066Z,2.40
2019-02-25T12:39:11.106Z,2.52
2019-02-25T12:41:42.289Z,2.60
2019-02-25T12:44:13.084Z,2.85
2019-02-25T12:46:43.862Z,2.60
2019-02-25T12:49:14.975Z,2.85
2019-02-25T12:51:45.777Z,2.45
2019-02-25T12:54:16.540Z,3.17
2019-02-25T12:56:47.321Z,2.75
2019-02-25T12:59:18.090Z,3.30
2019-02-25T13:01:48.887Z,2.75
2019-02-25T13:04:20.007Z,2.67
2019-02-25T13:06:51.154Z,3.12
2019-02-25T13:09:21.930Z,2.92
2019-02-25T13:11:52.718Z,2.77
2019-02-25T13:14:23.884Z,2.67
2019-02-25T13:16:54.918Z,3.00
2019-02-25T13:19:25.681Z,3.12
2019-02-25T13:21:56.493Z,3.35
2019-02-25T13:24:28.441Z,3.52
2019-02-25T13:27:01.005Z,3.05
2019-02-25T13:29:32.591Z,2.90
2019-02-25T13:32:03.757Z,2.83
2019-02-25T13:34:34.909Z,2.58
2019-02-25T13:37:06.135Z,2.55
2019-02-25T13:39:43.941Z,2.90
2019-02-25T13:42:14.981Z,3.55
2019-02-25T13:44:45.813Z,3.17
2019-02-25T13:47:16.601Z,2.92
2019-02-25T13:49:47.707Z,2.85
2019-02-25T13:52:18.565Z,2.33
2019-02-25T13:54:49.346Z,2.45
2019-02-25T13:57:20.627Z,1.87
2019-02-25T13:59:51.879Z,1.70
2019-02-25T14:02:22.665Z,1.92
2019-02-25T14:04:53.530Z,2.20
2019-02-25T14:07:25.035Z,2.00
2019-02-25T14:09:55.817Z,1.75
2019-02-25T14:12:26.588Z,1.90
2019-02-25T14:14:57.631Z,1.87
2019-02-25T14:17:28.875Z,1.95
2019-02-25T14:20:00.170Z,1.70
2019-02-25T14:22:31.478Z,1.72
2019-02-25T14:25:03.640Z,1.60
2019-02-25T14:27:34.669Z,1.52
2019-02-25T14:30:09.416Z,1.50
2019-02-25T14:32:40.198Z,1.47
2019-02-25T14:35:11.134Z,1.90
2019-02-25T14:37:41.899Z,1.65
2019-02-25T14:40:18.764Z,2.10
2019-02-25T14:42:49.461Z,1.80
2019-02-25T14:45:21.867Z,1.57
2019-02-25T14:47:57.493Z,1.27
2019-02-25T14:50:27.539Z,1.90
2019-02-25T14:53:00.243Z,1.70
2019-02-25T14:55:30.798Z,1.92
2019-02-25T14:58:04.531Z,1.62
2019-02-25T15:00:35.278Z,1.60
2019-02-25T15:03:06.950Z,1.55
2019-02-25T15:05:37.797Z,1.40
2019-02-25T15:08:09.326Z,1.50
2019-02-25T15:10:40.674Z,1.47
2019-02-25T15:13:12.814Z,1.15
2019-02-25T15:15:45.362Z,1.62
2019-02-25T15:18:16.406Z,1.50
2019-02-25T15:20:48.943Z,1.70
2019-02-25T15:23:23.673Z,1.62
2019-02-25T15:25:52.876Z,1.60
2019-02-25T15:28:23.621Z,1.50
2019-02-25T15:30:54.690Z,1.17
2019-02-25T15:33:25.524Z,1.47
2019-02-25T15:35:56.719Z,1.32
2019-02-25T15:38:29.088Z,1.60
2019-02-25T15:41:01.843Z,1.62
2019-02-25T15:43:32.801Z,1.95
2019-02-25T15:46:04.265Z,1.90
2019-02-25T15:48:37.171Z,1.80
2019-02-25T15:51:08.034Z,1.60
2019-02-25T15:53:38.811Z,1.70
2019-02-25T15:56:12.281Z,1.70
2019-02-25T15:58:42.935Z,1.75
2019-02-25T16:01:14.123Z,2.10
2019-02-25T16:03:45.173Z,1.77
2019-02-25T16:06:16.305Z,2.00
2019-02-25T16:08:50.007Z,2.00
2019-02-25T16:11:25.636Z,2.00
2019-02-25T16:13:55.725Z,1.92
2019-02-25T16:16:26.607Z,2.40
2019-02-25T16:18:57.370Z,2.17
2019-02-25T16:21:28.499Z,2.45
2019-02-25T16:24:01.567Z,2.00
2019-02-25T16:26:32.531Z,2.02
2019-02-25T16:29:06.666Z,2.17
2019-02-25T16:31:37.918Z,1.95
2019-02-25T16:34:09.967Z,2.00
2019-02-25T16:36:41.418Z,2.27
2019-02-25T16:39:12.270Z,2.20
2019-02-25T16:41:43.865Z,2.45
2019-02-25T16:44:15.568Z,2.40
2019-02-25T16:46:48.509Z,2.15
2019-02-25T16:49:19.260Z,2.15
2019-02-25T16:51:51.028Z,2.30
2019-02-25T16:54:23.003Z,2.30
2019-02-25T16:56:55.401Z,2.15
2019-02-25T16:59:26.253Z,2.40
2019-02-25T17:01:58.088Z,2.30
2019-02-25T17:04:31.857Z,2.35
2019-02-25T17:07:02.811Z,2.42
2019-02-25T17:09:36.407Z,3.17
2019-02-25T17:12:07.254Z,3.10
2019-02-25T17:14:40.427Z,2.40
2019-02-25T17:17:11.931Z,2.58
2019-02-25T17:19:42.733Z,2.30
2019-02-25T17:22:13.825Z,2.62
2019-02-25T17:24:44.625Z,2.50
2019-02-25T17:27:16.002Z,2.25
2019-02-25T17:29:46.810Z,2.15
2019-02-25T17:32:19.364Z,3.12
2019-02-25T17:34:50.750Z,2.83
2019-02-25T17:37:21.533Z,2.60
2019-02-25T17:39:54.437Z,2.92
2019-02-25T17:42:26.460Z,3.40
2019-02-25T17:44:59.718Z,4.22
2019-02-25T17:47:32.402Z,4.05
2019-02-25T17:50:04.527Z,3.15
2019-02-25T17:52:38.210Z,2.95
2019-02-25T17:55:12.810Z,3.85
2019-02-25T17:57:43.690Z,4.12
2019-02-25T18:00:17.741Z,3.50
2019-02-25T18:02:49.047Z,3.45
2019-02-25T18:05:20.859Z,3.60
2019-02-25T18:07:51.741Z,3.27
2019-02-25T18:10:25.000Z,3.75
2019-02-25T18:12:56.944Z,4.45
2019-02-25T18:15:33.878Z,3.50
2019-02-25T18:18:07.089Z,4.00
2019-02-25T18:20:38.923Z,3.50
2019-02-25T18:23:10.382Z,3.62
2019-02-25T18:25:41.325Z,3.95
2019-02-25T18:28:13.041Z,4.20
2019-02-25T18:30:44.938Z,4.08
2019-02-25T18:33:17.376Z,3.58
2019-02-25T18:35:48.759Z,3.45
2019-02-25T18:38:21.171Z,3.60
2019-02-25T18:40:52.605Z,3.65
2019-02-25T18:43:24.303Z,3.52
2019-02-25T18:45:57.975Z,3.40
2019-02-25T18:48:29.123Z,3.60
2019-02-25T18:51:01.256Z,3.12
2019-02-25T18:53:33.375Z,3.98
2019-02-25T18:56:05.521Z,3.42
2019-02-25T18:58:37.488Z,4.45
2019-02-25T19:01:11.278Z,5.35
2019-02-25T19:03:42.354Z,4.83
2019-02-25T19:06:14.585Z,5.37
2019-02-25T19:08:47.294Z,4.78
2019-02-25T19:11:21.211Z,5.10
2019-02-25T19:13:52.029Z,4.70
2019-02-25T19:16:24.334Z,4.42
2019-02-25T19:18:55.330Z,4.47
2019-02-25T19:21:27.687Z,3.95
2019-02-25T19:23:59.404Z,3.80
2019-02-25T19:26:30.205Z,3.62
2019-02-25T19:29:01.129Z,3.58
2019-02-25T19:31:32.211Z,4.00
2019-02-25T19:34:03.234Z,3.33
2019-02-25T19:36:35.076Z,3.62
2019-02-25T19:39:11.650Z,3.83
2019-02-25T19:41:45.058Z,3.95
2019-02-25T19:44:14.932Z,3.42
2019-02-25T19:46:48.063Z,3.75
2019-02-25T19:49:20.384Z,3.62
2019-02-25T19:51:52.713Z,3.60
2019-02-25T19:54:23.992Z,4.37
2019-02-25T19:56:57.780Z,3.85
2019-02-25T19:59:29.177Z,3.98
2019-02-25T20:02:00.490Z,3.72
2019-02-25T20:04:33.498Z,4.20
2019-02-25T20:07:03.734Z,4.17
2019-02-25T20:09:34.562Z,4.67
2019-02-25T20:12:05.692Z,3.62
2019-02-25T20:14:36.449Z,4.60
2019-02-25T20:17:07.234Z,3.98
2019-02-25T20:19:39.276Z,3.75
2019-02-25T20:22:12.033Z,3.80
2019-02-25T20:24:46.039Z,3.70
2019-02-25T20:27:16.063Z,4.08
2019-02-25T20:29:47.937Z,3.75
2019-02-25T20:32:20.651Z,3.30
2019-02-25T20:34:52.859Z,3.27
2019-02-25T20:37:25.127Z,3.67
2019-02-25T20:39:56.795Z,3.12
2019-02-25T20:42:28.550Z,3.45
2019-02-25T20:45:01.897Z,3.58
2019-02-25T20:47:32.688Z,3.15
2019-02-25T20:50:05.503Z,4.47
2019-02-25T20:52:38.187Z,3.90
2019-02-25T20:55:10.985Z,3.58
2019-02-25T20:57:42.914Z,4.00
2019-02-25T21:00:21.554Z,3.40
2019-02-25T21:02:52.499Z,3.10
2019-02-25T21:05:26.799Z,3.90
2019-02-25T21:07:57.134Z,3.50
2019-02-25T21:10:30.577Z,3.62
2019-02-25T21:13:02.256Z,4.40
2019-02-25T21:15:35.841Z,3.90
2019-02-25T21:18:07.845Z,5.47
2019-02-25T21:20:38.109Z,6.67
2019-02-25T21:23:10.702Z,6.10
2019-02-25T21:25:41.201Z,6.50
2019-02-25T21:28:11.707Z,6.57
2019-02-25T21:30:44.164Z,6.90
2019-02-25T21:33:17.416Z,7.05
2019-02-25T21:35:46.779Z,5.83
2019-02-25T21:38:17.330Z,5.67
2019-02-25T21:40:48.451Z,5.70
2019-02-25T21:43:21.083Z,5.87
2019-02-25T21:45:54.770Z,5.33
2019-02-25T21:48:27.461Z,5.13
2019-02-25T21:51:00.128Z,5.50
2019-02-25T21:53:29.815Z,5.13
2019-02-25T21:56:02.934Z,5.20
2019-02-25T21:58:32.210Z,4.33
2019-02-25T22:01:02.421Z,5.60
2019-02-25T22:03:37.118Z,6.10
2019-02-25T22:06:04.982Z,7.70
2019-02-25T22:08:36.069Z,7.20
2019-02-25T22:11:12.440Z,6.43
2019-02-25T22:13:38.486Z,6.53
2019-02-25T22:16:08.717Z,6.50
2019-02-25T22:18:39.227Z,5.77
2019-02-25T22:21:12.263Z,5.70
2019-02-25T22:23:42.070Z,5.37
2019-02-25T22:26:12.576Z,5.23
2019-02-25T22:28:42.793Z,5.10
2019-02-25T22:31:13.880Z,4.60
2019-02-25T22:33:44.906Z,4.80
2019-02-25T22:36:15.129Z,3.63
2019-02-25T22:38:45.323Z,4.30
2019-02-25T22:41:16.788Z,3.67
2019-02-25T22:43:48.296Z,3.93
2019-02-25T22:46:18.601Z,4.17
2019-02-25T22:48:49.099Z,4.20
2019-02-25T22:51:21.882Z,4.47
2019-02-25T22:53:51.246Z,4.47
2019-02-25T22:56:23.290Z,4.00
2019-02-25T22:58:54.016Z,4.27
2019-02-25T23:01:25.367Z,3.87
2019-02-25T23:03:57.307Z,4.33
2019-02-25T23:06:27.754Z,4.37
2019-02-25T23:08:57.937Z,4.43
2019-02-25T23:11:28.990Z,4.27
2019-02-25T23:13:59.230Z,4.23
2019-02-25T23:16:29.415Z,4.60
2019-02-25T23:18:59.649Z,4.30
2019-02-25T23:21:31.445Z,4.53
2019-02-25T23:24:04.722Z,4.57
2019-02-25T23:26:34.826Z,4.63
2019-02-25T23:29:05.248Z,4.13
2019-02-25T23:31:36.035Z,4.30
2019-02-25T23:34:07.987Z,3.70
2019-02-25T23:36:40.831Z,4.20
2019-02-25T23:39:10.247Z,3.77
2019-02-25T23:41:41.551Z,3.50
2019-02-25T23:44:13.239Z,3.70
2019-02-25T23:46:44.537Z,3.50
2019-02-25T23:49:14.783Z,3.80
2019-02-25T23:51:45.837Z,3.60
2019-02-25T23:54:18.476Z,4.33
2019-02-25T23:56:50.373Z,3.50
2019-02-25T23:59:23.884Z,3.33
